sensor_id;sensor_type;location;lat;lon;timestamp;pressure;altitude;pressure_sealevel;temperature;humidity
11672;BME280;5892;43.412;24.612;2022-11-20T00:00:18;99343.97;;;10.00;100.00
11672;BME280;5892;43.412;24.612;2022-11-20T00:02:44;99336.75;;;9.95;100.00
11672;BME280;5892;43.412;24.612;2022-11-20T00:05:11;99357.19;;;9.98;100.00
11672;BME280;5892;43.412;24.612;2022-11-20T00:07:38;99340.47;;;9.91;100.00
11672;BME280;5892;43.412;24.612;2022-11-20T00:10:06;99347.25;;;9.85;100.00
11672;BME280;5892;43.412;24.612;2022-11-20T00:12:33;99347.06;;;9.90;100.00
11672;BME280;5892;43.412;24.612;2022-11-20T00:14:59;99363.31;;;9.95;100.00
11672;BME280;5892;43.412;24.612;2022-11-20T00:17:28;99353.03;;;9.92;100.00
11672;BME280;5892;43.412;24.612;2022-11-20T00:19:55;99334.50;;;9.97;100.00
11672;BME280;5892;43.412;24.612;2022-11-20T00:22:22;99342.91;;;9.92;100.00
11672;BME280;5892;43.412;24.612;2022-11-20T00:24:49;99335.19;;;9.86;100.00
11672;BME280;5892;43.412;24.612;2022-11-20T00:27:16;99332.47;;;9.86;100.00
11672;BME280;5892;43.412;24.612;2022-11-20T00:29:42;99308.25;;;9.67;100.00
11672;BME280;5892;43.412;24.612;2022-11-20T00:32:09;99341.41;;;9.65;100.00
11672;BME280;5892;43.412;24.612;2022-11-20T00:34:38;99340.53;;;9.73;100.00
11672;BME280;5892;43.412;24.612;2022-11-20T00:37:04;99332.75;;;9.55;100.00
11672;BME280;5892;43.412;24.612;2022-11-20T00:39:31;99362.16;;;9.66;100.00
11672;BME280;5892;43.412;24.612;2022-11-20T00:41:59;99336.06;;;9.69;100.00
11672;BME280;5892;43.412;24.612;2022-11-20T00:44:26;99340.13;;;9.63;100.00
11672;BME280;5892;43.412;24.612;2022-11-20T00:46:53;99358.38;;;9.79;100.00
11672;BME280;5892;43.412;24.612;2022-11-20T00:49:20;99330.91;;;9.76;100.00
11672;BME280;5892;43.412;24.612;2022-11-20T00:51:49;99327.50;;;9.79;100.00
11672;BME280;5892;43.412;24.612;2022-11-20T00:54:16;99323.84;;;9.66;100.00
11672;BME280;5892;43.412;24.612;2022-11-20T00:56:42;99336.25;;;9.64;100.00
11672;BME280;5892;43.412;24.612;2022-11-20T00:59:09;99324.22;;;9.56;100.00
11672;BME280;5892;43.412;24.612;2022-11-20T01:01:37;99327.72;;;9.65;100.00
11672;BME280;5892;43.412;24.612;2022-11-20T01:04:04;99311.66;;;9.55;100.00
11672;BME280;5892;43.412;24.612;2022-11-20T01:06:34;99340.41;;;9.70;100.00
11672;BME280;5892;43.412;24.612;2022-11-20T01:09:04;99296.78;;;9.35;100.00
11672;BME280;5892;43.412;24.612;2022-11-20T01:11:34;99340.72;;;9.68;100.00
11672;BME280;5892;43.412;24.612;2022-11-20T01:14:02;99195.22;;;8.78;100.00
11672;BME280;5892;43.412;24.612;2022-11-20T01:16:32;99355.22;;;9.69;100.00
11672;BME280;5892;43.412;24.612;2022-11-20T01:19:00;99326.47;;;9.54;100.00
11672;BME280;5892;43.412;24.612;2022-11-20T01:21:30;99303.91;;;9.66;100.00
11672;BME280;5892;43.412;24.612;2022-11-20T01:23:59;99313.66;;;9.46;100.00
11672;BME280;5892;43.412;24.612;2022-11-20T01:26:28;99295.16;;;9.43;100.00
11672;BME280;5892;43.412;24.612;2022-11-20T01:28:56;99313.66;;;9.46;100.00
11672;BME280;5892;43.412;24.612;2022-11-20T01:31:26;99304.63;;;9.46;100.00
11672;BME280;5892;43.412;24.612;2022-11-20T01:33:55;99307.56;;;9.41;100.00
11672;BME280;5892;43.412;24.612;2022-11-20T01:36:25;99293.88;;;9.41;100.00
11672;BME280;5892;43.412;24.612;2022-11-20T01:38:55;99309.94;;;9.42;100.00
11672;BME280;5892;43.412;24.612;2022-11-20T01:41:24;99222.28;;;9.09;100.00
11672;BME280;5892;43.412;24.612;2022-11-20T01:44:12;99299.00;;;9.51;100.00
11672;BME280;5892;43.412;24.612;2022-11-20T01:46:53;99283.84;;;9.53;100.00
11672;BME280;5892;43.412;24.612;2022-11-20T01:49:26;99282.28;;;9.44;100.00
11672;BME280;5892;43.412;24.612;2022-11-20T01:51:57;99291.59;;;9.51;100.00
11672;BME280;5892;43.412;24.612;2022-11-20T01:54:31;99273.38;;;9.55;100.00
11672;BME280;5892;43.412;24.612;2022-11-20T01:56:59;99253.00;;;9.44;100.00
11672;BME280;5892;43.412;24.612;2022-11-20T01:59:29;99254.78;;;9.40;100.00
11672;BME280;5892;43.412;24.612;2022-11-20T02:01:56;99286.56;;;9.53;100.00
11672;BME280;5892;43.412;24.612;2022-11-20T02:04:24;99282.72;;;9.54;100.00
11672;BME280;5892;43.412;24.612;2022-11-20T02:06:56;99252.50;;;9.51;100.00
11672;BME280;5892;43.412;24.612;2022-11-20T02:09:25;99239.25;;;9.61;100.00
11672;BME280;5892;43.412;24.612;2022-11-20T02:11:53;99242.50;;;9.55;100.00
11672;BME280;5892;43.412;24.612;2022-11-20T02:14:21;99176.97;;;9.38;100.00
11672;BME280;5892;43.412;24.612;2022-11-20T02:16:49;99237.09;;;9.46;100.00
11672;BME280;5892;43.412;24.612;2022-11-20T02:19:22;99215.34;;;9.50;100.00
11672;BME280;5892;43.412;24.612;2022-11-20T02:21:58;99216.97;;;9.42;100.00
11672;BME280;5892;43.412;24.612;2022-11-20T02:24:28;99208.50;;;9.35;100.00
11672;BME280;5892;43.412;24.612;2022-11-20T02:26:59;99221.63;;;9.50;100.00
11672;BME280;5892;43.412;24.612;2022-11-20T02:29:30;99216.91;;;9.59;100.00
11672;BME280;5892;43.412;24.612;2022-11-20T02:31:59;99223.03;;;9.56;100.00
11672;BME280;5892;43.412;24.612;2022-11-20T02:34:27;99212.94;;;9.48;100.00
11672;BME280;5892;43.412;24.612;2022-11-20T02:36:55;99229.63;;;9.55;100.00
11672;BME280;5892;43.412;24.612;2022-11-20T02:39:24;99237.34;;;9.53;100.00
11672;BME280;5892;43.412;24.612;2022-11-20T02:41:54;99210.38;;;9.43;100.00
11672;BME280;5892;43.412;24.612;2022-11-20T02:44:22;99244.53;;;9.66;100.00
11672;BME280;5892;43.412;24.612;2022-11-20T02:46:49;99233.88;;;9.44;100.00
11672;BME280;5892;43.412;24.612;2022-11-20T02:49:15;99242.91;;;9.36;100.00
11672;BME280;5892;43.412;24.612;2022-11-20T02:51:43;99260.28;;;9.40;100.00
11672;BME280;5892;43.412;24.612;2022-11-20T02:54:10;99245.84;;;9.31;100.00
11672;BME280;5892;43.412;24.612;2022-11-20T02:56:39;99271.34;;;9.44;100.00
11672;BME280;5892;43.412;24.612;2022-11-20T02:59:08;99278.91;;;9.47;100.00
11672;BME280;5892;43.412;24.612;2022-11-20T03:01:34;99291.09;;;9.49;100.00
11672;BME280;5892;43.412;24.612;2022-11-20T03:04:02;99289.09;;;9.29;100.00
11672;BME280;5892;43.412;24.612;2022-11-20T03:06:29;99291.78;;;9.46;100.00
11672;BME280;5892;43.412;24.612;2022-11-20T03:08:56;99311.50;;;9.60;100.00
11672;BME280;5892;43.412;24.612;2022-11-20T03:11:23;99310.81;;;9.63;100.00
11672;BME280;5892;43.412;24.612;2022-11-20T03:13:50;99323.72;;;9.63;100.00
11672;BME280;5892;43.412;24.612;2022-11-20T03:16:20;99340.91;;;9.63;100.00
11672;BME280;5892;43.412;24.612;2022-11-20T03:18:48;99344.13;;;9.65;100.00
11672;BME280;5892;43.412;24.612;2022-11-20T03:21:16;99337.72;;;9.61;100.00
11672;BME280;5892;43.412;24.612;2022-11-20T03:23:43;99302.28;;;9.27;100.00
11672;BME280;5892;43.412;24.612;2022-11-20T03:26:13;99347.72;;;9.57;100.00
11672;BME280;5892;43.412;24.612;2022-11-20T03:28:40;99354.59;;;9.63;100.00
11672;BME280;5892;43.412;24.612;2022-11-20T03:31:09;99375.69;;;9.54;100.00
11672;BME280;5892;43.412;24.612;2022-11-20T03:33:39;99363.00;;;9.50;100.00
11672;BME280;5892;43.412;24.612;2022-11-20T03:36:09;99385.19;;;9.57;100.00
11672;BME280;5892;43.412;24.612;2022-11-20T03:38:36;99382.13;;;9.58;100.00
11672;BME280;5892;43.412;24.612;2022-11-20T03:41:05;99390.66;;;9.57;100.00
11672;BME280;5892;43.412;24.612;2022-11-20T03:43:33;99399.78;;;9.69;100.00
11672;BME280;5892;43.412;24.612;2022-11-20T03:46:00;99366.88;;;9.49;100.00
11672;BME280;5892;43.412;24.612;2022-11-20T03:48:27;99402.88;;;9.68;100.00
11672;BME280;5892;43.412;24.612;2022-11-20T03:51:08;99265.88;;;8.88;100.00
11672;BME280;5892;43.412;24.612;2022-11-20T03:53:35;99388.03;;;9.77;100.00
11672;BME280;5892;43.412;24.612;2022-11-20T03:56:02;99307.81;;;9.10;100.00
11672;BME280;5892;43.412;24.612;2022-11-20T03:58:29;99393.78;;;9.85;100.00
11672;BME280;5892;43.412;24.612;2022-11-20T04:00:56;99388.59;;;9.92;100.00
11672;BME280;5892;43.412;24.612;2022-11-20T04:03:23;99395.03;;;9.96;100.00
11672;BME280;5892;43.412;24.612;2022-11-20T04:05:50;99389.41;;;9.92;100.00
11672;BME280;5892;43.412;24.612;2022-11-20T04:08:18;99385.38;;;9.90;100.00
11672;BME280;5892;43.412;24.612;2022-11-20T04:10:45;99422.38;;;10.04;100.00
11672;BME280;5892;43.412;24.612;2022-11-20T04:13:13;99409.63;;;10.08;100.00
11672;BME280;5892;43.412;24.612;2022-11-20T04:15:39;99426.19;;;10.12;100.00
11672;BME280;5892;43.412;24.612;2022-11-20T04:18:06;99412.19;;;10.13;100.00
11672;BME280;5892;43.412;24.612;2022-11-20T04:20:33;99420.59;;;10.08;100.00
11672;BME280;5892;43.412;24.612;2022-11-20T04:23:00;99447.31;;;10.20;100.00
11672;BME280;5892;43.412;24.612;2022-11-20T04:25:28;99493.34;;;10.18;100.00
11672;BME280;5892;43.412;24.612;2022-11-20T04:27:55;99437.00;;;10.08;100.00
11672;BME280;5892;43.412;24.612;2022-11-20T04:30:22;99448.06;;;10.20;100.00
11672;BME280;5892;43.412;24.612;2022-11-20T04:32:49;99455.03;;;10.18;100.00
11672;BME280;5892;43.412;24.612;2022-11-20T04:35:16;99446.63;;;10.23;100.00
11672;BME280;5892;43.412;24.612;2022-11-20T04:37:45;99418.16;;;10.07;100.00
11672;BME280;5892;43.412;24.612;2022-11-20T04:40:12;99445.69;;;10.19;100.00
11672;BME280;5892;43.412;24.612;2022-11-20T04:42:40;99456.44;;;10.15;100.00
11672;BME280;5892;43.412;24.612;2022-11-20T04:45:08;99453.25;;;10.13;100.00
11672;BME280;5892;43.412;24.612;2022-11-20T04:47:35;99446.97;;;10.13;100.00
11672;BME280;5892;43.412;24.612;2022-11-20T04:50:02;99458.41;;;10.15;100.00
11672;BME280;5892;43.412;24.612;2022-11-20T04:52:29;99470.31;;;10.19;100.00
11672;BME280;5892;43.412;24.612;2022-11-20T04:54:56;99460.03;;;10.07;100.00
11672;BME280;5892;43.412;24.612;2022-11-20T04:57:23;99462.13;;;10.02;100.00
11672;BME280;5892;43.412;24.612;2022-11-20T04:59:51;99458.91;;;10.00;100.00
11672;BME280;5892;43.412;24.612;2022-11-20T05:02:18;99456.34;;;9.95;100.00
11672;BME280;5892;43.412;24.612;2022-11-20T05:04:45;99471.97;;;10.03;100.00
11672;BME280;5892;43.412;24.612;2022-11-20T05:07:12;99476.94;;;10.01;100.00
11672;BME280;5892;43.412;24.612;2022-11-20T05:09:39;99482.41;;;10.01;100.00
11672;BME280;5892;43.412;24.612;2022-11-20T05:12:07;99472.28;;;10.10;100.00
11672;BME280;5892;43.412;24.612;2022-11-20T05:14:34;99445.75;;;9.93;100.00
11672;BME280;5892;43.412;24.612;2022-11-20T05:17:02;99440.56;;;10.00;100.00
11672;BME280;5892;43.412;24.612;2022-11-20T05:19:29;99455.50;;;10.11;100.00
11672;BME280;5892;43.412;24.612;2022-11-20T05:21:56;99468.09;;;10.04;100.00
11672;BME280;5892;43.412;24.612;2022-11-20T05:24:23;99467.31;;;9.95;100.00
11672;BME280;5892;43.412;24.612;2022-11-20T05:26:50;99497.53;;;10.07;100.00
11672;BME280;5892;43.412;24.612;2022-11-20T05:29:17;99469.84;;;10.00;100.00
11672;BME280;5892;43.412;24.612;2022-11-20T05:31:44;99435.84;;;9.71;100.00
11672;BME280;5892;43.412;24.612;2022-11-20T05:34:14;99477.91;;;10.05;100.00
11672;BME280;5892;43.412;24.612;2022-11-20T05:36:41;99485.69;;;9.94;100.00
11672;BME280;5892;43.412;24.612;2022-11-20T05:39:08;99483.91;;;9.90;100.00
11672;BME280;5892;43.412;24.612;2022-11-20T05:41:35;99498.72;;;9.89;100.00
11672;BME280;5892;43.412;24.612;2022-11-20T05:44:02;99505.16;;;9.84;100.00
11672;BME280;5892;43.412;24.612;2022-11-20T05:46:29;99492.78;;;9.69;100.00
11672;BME280;5892;43.412;24.612;2022-11-20T05:48:56;99520.97;;;9.70;100.00
11672;BME280;5892;43.412;24.612;2022-11-20T05:51:25;99530.28;;;9.69;100.00
11672;BME280;5892;43.412;24.612;2022-11-20T05:53:53;99532.84;;;9.74;100.00
11672;BME280;5892;43.412;24.612;2022-11-20T05:56:21;99567.78;;;9.68;100.00
11672;BME280;5892;43.412;24.612;2022-11-20T05:58:49;99506.66;;;9.47;100.00
11672;BME280;5892;43.412;24.612;2022-11-20T06:01:18;99556.53;;;9.61;100.00
11672;BME280;5892;43.412;24.612;2022-11-20T06:03:45;99549.13;;;9.70;100.00
11672;BME280;5892;43.412;24.612;2022-11-20T06:06:13;99563.94;;;9.52;100.00
11672;BME280;5892;43.412;24.612;2022-11-20T06:08:42;99539.31;;;9.44;100.00
11672;BME280;5892;43.412;24.612;2022-11-20T06:11:10;99531.41;;;9.42;100.00
11672;BME280;5892;43.412;24.612;2022-11-20T06:13:41;99551.53;;;9.38;100.00
11672;BME280;5892;43.412;24.612;2022-11-20T06:16:08;99547.78;;;9.08;100.00
11672;BME280;5892;43.412;24.612;2022-11-20T06:18:35;99554.41;;;9.24;100.00
11672;BME280;5892;43.412;24.612;2022-11-20T06:21:04;99566.97;;;9.33;100.00
11672;BME280;5892;43.412;24.612;2022-11-20T06:23:32;99557.31;;;9.19;100.00
11672;BME280;5892;43.412;24.612;2022-11-20T06:26:03;99573.69;;;9.19;100.00
11672;BME280;5892;43.412;24.612;2022-11-20T06:28:32;99580.13;;;9.23;100.00
11672;BME280;5892;43.412;24.612;2022-11-20T06:30:59;99592.19;;;9.13;100.00
11672;BME280;5892;43.412;24.612;2022-11-20T06:33:34;99600.56;;;9.25;100.00
11672;BME280;5892;43.412;24.612;2022-11-20T06:36:01;99614.75;;;9.36;100.00
11672;BME280;5892;43.412;24.612;2022-11-20T06:38:28;99608.97;;;9.46;100.00
11672;BME280;5892;43.412;24.612;2022-11-20T06:40:55;99567.94;;;9.29;100.00
11672;BME280;5892;43.412;24.612;2022-11-20T06:43:24;99581.47;;;9.60;100.00
11672;BME280;5892;43.412;24.612;2022-11-20T06:45:52;99582.94;;;9.57;100.00
11672;BME280;5892;43.412;24.612;2022-11-20T06:48:19;99565.22;;;9.46;100.00
11672;BME280;5892;43.412;24.612;2022-11-20T06:50:46;99539.78;;;9.54;100.00
11672;BME280;5892;43.412;24.612;2022-11-20T06:53:13;99471.75;;;8.92;100.00
11672;BME280;5892;43.412;24.612;2022-11-20T06:55:42;99586.75;;;9.73;100.00
11672;BME280;5892;43.412;24.612;2022-11-20T06:58:10;99539.31;;;9.61;100.00
11672;BME280;5892;43.412;24.612;2022-11-20T07:00:39;99565.19;;;9.63;100.00
11672;BME280;5892;43.412;24.612;2022-11-20T07:03:08;99559.44;;;9.56;100.00
11672;BME280;5892;43.412;24.612;2022-11-20T07:05:36;99626.19;;;10.07;100.00
11672;BME280;5892;43.412;24.612;2022-11-20T07:08:04;99628.31;;;10.10;100.00
11672;BME280;5892;43.412;24.612;2022-11-20T07:10:31;99630.06;;;10.14;100.00
11672;BME280;5892;43.412;24.612;2022-11-20T07:12:58;99607.34;;;10.14;100.00
11672;BME280;5892;43.412;24.612;2022-11-20T07:15:33;99603.31;;;10.29;100.00
11672;BME280;5892;43.412;24.612;2022-11-20T07:18:02;99595.88;;;10.46;100.00
11672;BME280;5892;43.412;24.612;2022-11-20T07:20:29;99604.19;;;10.58;100.00
11672;BME280;5892;43.412;24.612;2022-11-20T07:22:57;99627.19;;;10.75;100.00
11672;BME280;5892;43.412;24.612;2022-11-20T07:25:26;99601.28;;;10.63;100.00
11672;BME280;5892;43.412;24.612;2022-11-20T07:27:56;99624.94;;;10.77;100.00
11672;BME280;5892;43.412;24.612;2022-11-20T07:30:23;99626.88;;;10.76;100.00
11672;BME280;5892;43.412;24.612;2022-11-20T07:32:51;99624.50;;;10.57;100.00
11672;BME280;5892;43.412;24.612;2022-11-20T07:35:19;99621.75;;;10.57;100.00
11672;BME280;5892;43.412;24.612;2022-11-20T07:37:47;99632.41;;;10.68;100.00
11672;BME280;5892;43.412;24.612;2022-11-20T07:40:14;99593.41;;;10.62;100.00
11672;BME280;5892;43.412;24.612;2022-11-20T07:42:47;99626.50;;;10.86;100.00
11672;BME280;5892;43.412;24.612;2022-11-20T07:45:15;99623.16;;;10.81;100.00
11672;BME280;5892;43.412;24.612;2022-11-20T07:47:42;99631.00;;;10.91;100.00
11672;BME280;5892;43.412;24.612;2022-11-20T07:50:15;99619.09;;;10.87;100.00
11672;BME280;5892;43.412;24.612;2022-11-20T07:52:43;99599.41;;;10.93;100.00
11672;BME280;5892;43.412;24.612;2022-11-20T07:55:10;99605.97;;;11.01;100.00
11672;BME280;5892;43.412;24.612;2022-11-20T07:57:37;99541.88;;;10.55;100.00
11672;BME280;5892;43.412;24.612;2022-11-20T08:00:06;99603.91;;;10.98;100.00
11672;BME280;5892;43.412;24.612;2022-11-20T08:02:36;99588.44;;;10.93;100.00
11672;BME280;5892;43.412;24.612;2022-11-20T08:05:03;99587.78;;;10.96;100.00
11672;BME280;5892;43.412;24.612;2022-11-20T08:07:35;99629.75;;;11.18;100.00
11672;BME280;5892;43.412;24.612;2022-11-20T08:10:04;99609.28;;;11.15;100.00
11672;BME280;5892;43.412;24.612;2022-11-20T08:12:31;99588.31;;;11.19;100.00
11672;BME280;5892;43.412;24.612;2022-11-20T08:15:16;99576.38;;;11.36;100.00
11672;BME280;5892;43.412;24.612;2022-11-20T08:17:43;99584.56;;;11.44;100.00
11672;BME280;5892;43.412;24.612;2022-11-20T08:20:12;99595.25;;;11.37;100.00
11672;BME280;5892;43.412;24.612;2022-11-20T08:22:39;99605.84;;;11.47;100.00
11672;BME280;5892;43.412;24.612;2022-11-20T08:25:08;99612.94;;;11.48;100.00
11672;BME280;5892;43.412;24.612;2022-11-20T08:27:35;99607.72;;;11.35;100.00
11672;BME280;5892;43.412;24.612;2022-11-20T08:30:02;99608.78;;;11.42;100.00
11672;BME280;5892;43.412;24.612;2022-11-20T08:32:29;99577.53;;;11.14;100.00
11672;BME280;5892;43.412;24.612;2022-11-20T08:34:56;99609.72;;;11.46;100.00
11672;BME280;5892;43.412;24.612;2022-11-20T08:37:25;99605.19;;;11.51;100.00
11672;BME280;5892;43.412;24.612;2022-11-20T08:39:56;99604.31;;;11.59;100.00
11672;BME280;5892;43.412;24.612;2022-11-20T08:42:24;99572.19;;;11.38;100.00
11672;BME280;5892;43.412;24.612;2022-11-20T08:44:51;99598.72;;;11.55;100.00
11672;BME280;5892;43.412;24.612;2022-11-20T08:47:22;99606.16;;;11.75;100.00
11672;BME280;5892;43.412;24.612;2022-11-20T08:49:48;99583.09;;;11.68;100.00
11672;BME280;5892;43.412;24.612;2022-11-20T08:52:15;99567.03;;;11.99;100.00
11672;BME280;5892;43.412;24.612;2022-11-20T08:54:42;99584.19;;;12.29;100.00
11672;BME280;5892;43.412;24.612;2022-11-20T08:57:09;99568.41;;;12.38;100.00
11672;BME280;5892;43.412;24.612;2022-11-20T08:59:37;99540.13;;;12.38;100.00
11672;BME280;5892;43.412;24.612;2022-11-20T09:02:05;99583.47;;;12.65;100.00
11672;BME280;5892;43.412;24.612;2022-11-20T09:04:32;99447.78;;;11.88;100.00
11672;BME280;5892;43.412;24.612;2022-11-20T09:06:59;99569.50;;;12.70;100.00
11672;BME280;5892;43.412;24.612;2022-11-20T09:09:26;99547.16;;;12.59;100.00
11672;BME280;5892;43.412;24.612;2022-11-20T09:11:53;99533.97;;;12.53;100.00
11672;BME280;5892;43.412;24.612;2022-11-20T09:14:20;99549.66;;;12.52;100.00
11672;BME280;5892;43.412;24.612;2022-11-20T09:16:51;99545.88;;;12.57;100.00
11672;BME280;5892;43.412;24.612;2022-11-20T09:19:18;99545.06;;;12.56;100.00
11672;BME280;5892;43.412;24.612;2022-11-20T09:21:45;99559.06;;;12.63;100.00
11672;BME280;5892;43.412;24.612;2022-11-20T09:24:12;99545.44;;;12.55;100.00
11672;BME280;5892;43.412;24.612;2022-11-20T09:26:39;99532.81;;;12.54;100.00
11672;BME280;5892;43.412;24.612;2022-11-20T09:29:06;99535.09;;;12.52;100.00
11672;BME280;5892;43.412;24.612;2022-11-20T09:31:33;99516.56;;;12.49;100.00
11672;BME280;5892;43.412;24.612;2022-11-20T09:34:01;99523.44;;;12.67;100.00
11672;BME280;5892;43.412;24.612;2022-11-20T09:36:28;99505.59;;;12.61;100.00
11672;BME280;5892;43.412;24.612;2022-11-20T09:38:55;99473.38;;;12.37;100.00
11672;BME280;5892;43.412;24.612;2022-11-20T09:41:46;99465.94;;;12.25;100.00
11672;BME280;5892;43.412;24.612;2022-11-20T09:44:26;99516.69;;;12.64;100.00
11672;BME280;5892;43.412;24.612;2022-11-20T09:47:01;99511.84;;;12.61;100.00
11672;BME280;5892;43.412;24.612;2022-11-20T09:49:39;99515.53;;;12.53;100.00
11672;BME280;5892;43.412;24.612;2022-11-20T09:52:18;99499.03;;;12.53;100.00
11672;BME280;5892;43.412;24.612;2022-11-20T09:54:48;99506.03;;;12.63;100.00
11672;BME280;5892;43.412;24.612;2022-11-20T09:57:18;99500.53;;;12.63;100.00
11672;BME280;5892;43.412;24.612;2022-11-20T09:59:50;99499.38;;;12.52;100.00
11672;BME280;5892;43.412;24.612;2022-11-20T10:02:27;99519.09;;;12.66;100.00
11672;BME280;5892;43.412;24.612;2022-11-20T10:05:00;99522.75;;;12.70;100.00
11672;BME280;5892;43.412;24.612;2022-11-20T10:07:32;99527.69;;;12.64;100.00
11672;BME280;5892;43.412;24.612;2022-11-20T10:10:03;99527.69;;;12.64;100.00
11672;BME280;5892;43.412;24.612;2022-11-20T10:12:36;99475.69;;;12.35;100.00
11672;BME280;5892;43.412;24.612;2022-11-20T10:15:22;99524.81;;;12.73;100.00
11672;BME280;5892;43.412;24.612;2022-11-20T10:18:02;99526.06;;;12.88;100.00
11672;BME280;5892;43.412;24.612;2022-11-20T10:20:43;99533.16;;;13.01;100.00
11672;BME280;5892;43.412;24.612;2022-11-20T10:23:31;99510.59;;;13.07;100.00
11672;BME280;5892;43.412;24.612;2022-11-20T10:26:17;99508.53;;;13.04;100.00
11672;BME280;5892;43.412;24.612;2022-11-20T10:28:56;99511.28;;;13.17;100.00
11672;BME280;5892;43.412;24.612;2022-11-20T10:31:33;99529.50;;;13.21;100.00
11672;BME280;5892;43.412;24.612;2022-11-20T10:34:08;99552.66;;;13.20;100.00
11672;BME280;5892;43.412;24.612;2022-11-20T10:36:44;99568.22;;;13.04;100.00
11672;BME280;5892;43.412;24.612;2022-11-20T10:39:18;99598.50;;;12.92;100.00
11672;BME280;5892;43.412;24.612;2022-11-20T10:41:51;99630.91;;;12.86;100.00
11672;BME280;5892;43.412;24.612;2022-11-20T10:44:20;99641.41;;;12.60;100.00
11672;BME280;5892;43.412;24.612;2022-11-20T10:47:01;99648.06;;;12.71;100.00
11672;BME280;5892;43.412;24.612;2022-11-20T10:49:31;99613.59;;;12.28;100.00
11672;BME280;5892;43.412;24.612;2022-11-20T10:52:07;99624.75;;;12.44;100.00
11672;BME280;5892;43.412;24.612;2022-11-20T10:54:44;99616.13;;;12.34;100.00
11672;BME280;5892;43.412;24.612;2022-11-20T10:57:23;99626.19;;;12.29;100.00
11672;BME280;5892;43.412;24.612;2022-11-20T11:00:01;99572.47;;;11.87;100.00
11672;BME280;5892;43.412;24.612;2022-11-20T11:02:34;99594.88;;;12.10;100.00
11672;BME280;5892;43.412;24.612;2022-11-20T11:05:10;99536.25;;;11.73;100.00
11672;BME280;5892;43.412;24.612;2022-11-20T11:07:41;99573.47;;;12.03;100.00
11672;BME280;5892;43.412;24.612;2022-11-20T11:10:15;99574.53;;;11.90;100.00
11672;BME280;5892;43.412;24.612;2022-11-20T11:12:44;99561.16;;;11.88;100.00
11672;BME280;5892;43.412;24.612;2022-11-20T11:15:14;99535.28;;;11.77;100.00
11672;BME280;5892;43.412;24.612;2022-11-20T11:17:46;99542.19;;;11.96;100.00
11672;BME280;5892;43.412;24.612;2022-11-20T11:20:18;99520.34;;;11.87;100.00
11672;BME280;5892;43.412;24.612;2022-11-20T11:22:48;99500.63;;;11.85;100.00
11672;BME280;5892;43.412;24.612;2022-11-20T11:25:20;99507.69;;;11.74;100.00
11672;BME280;5892;43.412;24.612;2022-11-20T11:27:49;99514.91;;;11.58;100.00
11672;BME280;5892;43.412;24.612;2022-11-20T11:30:19;99502.72;;;11.46;100.00
11672;BME280;5892;43.412;24.612;2022-11-20T11:32:47;99500.94;;;11.51;100.00
11672;BME280;5892;43.412;24.612;2022-11-20T11:35:23;99495.25;;;11.56;100.00
11672;BME280;5892;43.412;24.612;2022-11-20T11:37:53;99425.41;;;11.32;100.00
11672;BME280;5892;43.412;24.612;2022-11-20T11:40:21;99456.25;;;11.50;100.00
11672;BME280;5892;43.412;24.612;2022-11-20T11:42:55;99463.34;;;11.51;100.00
11672;BME280;5892;43.412;24.612;2022-11-20T11:45:23;99461.66;;;11.38;100.00
11672;BME280;5892;43.412;24.612;2022-11-20T11:47:50;99464.09;;;11.39;100.00
11672;BME280;5892;43.412;24.612;2022-11-20T11:50:21;99412.94;;;11.23;100.00
11672;BME280;5892;43.412;24.612;2022-11-20T11:53:07;99424.28;;;11.33;100.00
11672;BME280;5892;43.412;24.612;2022-11-20T11:55:39;99434.97;;;11.26;100.00
11672;BME280;5892;43.412;24.612;2022-11-20T11:58:22;99436.88;;;11.34;100.00
11672;BME280;5892;43.412;24.612;2022-11-20T12:00:57;99429.66;;;11.30;100.00
11672;BME280;5892;43.412;24.612;2022-11-20T12:03:29;99406.50;;;11.19;100.00
11672;BME280;5892;43.412;24.612;2022-11-20T12:06:05;99416.75;;;11.30;100.00
11672;BME280;5892;43.412;24.612;2022-11-20T12:08:42;99421.38;;;11.51;100.00
11672;BME280;5892;43.412;24.612;2022-11-20T12:11:14;99404.44;;;11.48;100.00
11672;BME280;5892;43.412;24.612;2022-11-20T12:13:48;99387.06;;;11.44;100.00
11672;BME280;5892;43.412;24.612;2022-11-20T12:16:19;99401.06;;;11.64;100.00
11672;BME280;5892;43.412;24.612;2022-11-20T12:18:49;99402.72;;;11.77;100.00
11672;BME280;5892;43.412;24.612;2022-11-20T12:21:20;99412.91;;;11.76;100.00
11672;BME280;5892;43.412;24.612;2022-11-20T12:23:57;99380.81;;;11.68;100.00
11672;BME280;5892;43.412;24.612;2022-11-20T12:26:40;99408.13;;;11.85;100.00
11672;BME280;5892;43.412;24.612;2022-11-20T12:29:14;99406.53;;;11.97;100.00
11672;BME280;5892;43.412;24.612;2022-11-20T12:32:00;99411.69;;;11.98;100.00
11672;BME280;5892;43.412;24.612;2022-11-20T12:34:52;99438.44;;;12.01;100.00
11672;BME280;5892;43.412;24.612;2022-11-20T12:37:33;99409.94;;;11.94;100.00
11672;BME280;5892;43.412;24.612;2022-11-20T12:40:27;99425.78;;;12.09;100.00
11672;BME280;5892;43.412;24.612;2022-11-20T12:43:03;99427.56;;;12.05;100.00
11672;BME280;5892;43.412;24.612;2022-11-20T12:46:08;99462.13;;;12.06;100.00
11672;BME280;5892;43.412;24.612;2022-11-20T12:48:51;99516.25;;;12.05;100.00
11672;BME280;5892;43.412;24.612;2022-11-20T12:51:34;99561.94;;;11.89;100.00
11672;BME280;5892;43.412;24.612;2022-11-20T12:54:36;99545.28;;;11.53;100.00
11672;BME280;5892;43.412;24.612;2022-11-20T12:57:12;99523.34;;;11.53;100.00
11672;BME280;5892;43.412;24.612;2022-11-20T13:00:01;99484.72;;;11.58;100.00
11672;BME280;5892;43.412;24.612;2022-11-20T13:02:45;99553.28;;;11.45;100.00
11672;BME280;5892;43.412;24.612;2022-11-20T13:05:22;99541.94;;;11.47;100.00
11672;BME280;5892;43.412;24.612;2022-11-20T13:07:52;99525.16;;;11.48;100.00
11672;BME280;5892;43.412;24.612;2022-11-20T13:10:26;99528.09;;;11.43;100.00